createdAt,value
2016-10-09T00:00:31.204Z,0
2016-10-09T00:01:12.878Z,0
2016-10-09T00:01:54.518Z,0
2016-10-09T00:02:36.063Z,0
2016-10-09T00:03:17.826Z,0
2016-10-09T00:05:38.566Z,0
2016-10-09T00:06:20.363Z,0
2016-10-09T00:07:02.072Z,0
2016-10-09T00:07:43.782Z,0
2016-10-09T00:08:25.468Z,0
2016-10-09T00:09:07.291Z,0
2016-10-09T00:09:48.940Z,0
2016-10-09T00:10:30.646Z,0
2016-10-09T00:11:12.086Z,0
2016-10-09T00:11:53.886Z,0
2016-10-09T00:12:35.557Z,0
2016-10-09T00:13:17.392Z,0
2016-10-09T00:13:59.098Z,0
2016-10-09T00:14:40.775Z,0
2016-10-09T00:17:11.913Z,0
2016-10-09T00:17:53.574Z,0
2016-10-09T00:18:35.317Z,0
2016-10-09T00:19:17.060Z,0
2016-10-09T00:19:58.693Z,0
2016-10-09T00:20:40.401Z,0
2016-10-09T00:21:22.047Z,0
2016-10-09T00:23:58.572Z,0
2016-10-09T00:24:40.174Z,0
2016-10-09T00:25:21.885Z,0
2016-10-09T00:26:03.653Z,0
2016-10-09T00:26:45.258Z,0
2016-10-09T00:29:00.680Z,0
2016-10-09T00:29:42.440Z,0
2016-10-09T00:30:24.137Z,0
2016-10-09T00:31:05.873Z,0
2016-10-09T00:31:47.495Z,0
2016-10-09T00:34:08.279Z,0
2016-10-09T00:36:49.999Z,0
2016-10-09T00:37:31.431Z,0
2016-10-09T00:38:13.000Z,0
2016-10-09T00:38:54.610Z,0
2016-10-09T00:39:36.377Z,0
2016-10-09T00:40:18.006Z,0
2016-10-09T00:42:59.769Z,0
2016-10-09T00:43:41.493Z,0
2016-10-09T00:44:23.154Z,0
2016-10-09T00:45:04.885Z,0
2016-10-09T00:45:46.600Z,0
2016-10-09T00:46:28.326Z,0
2016-10-09T00:47:09.994Z,0
2016-10-09T00:49:25.455Z,0
2016-10-09T00:50:07.092Z,0
2016-10-09T00:50:48.801Z,0
2016-10-09T00:51:30.504Z,0
2016-10-09T00:52:12.111Z,0
2016-10-09T00:54:48.618Z,0
2016-10-09T00:55:30.364Z,0
2016-10-09T00:56:12.074Z,0
2016-10-09T00:56:52.771Z,0
2016-10-09T00:57:33.301Z,0
2016-10-09T00:58:13.833Z,0
2016-10-09T00:58:54.355Z,0
2016-10-09T00:59:34.857Z,0
2016-10-09T01:00:15.385Z,0
2016-10-09T01:00:55.900Z,0
2016-10-09T01:01:36.423Z,0
2016-10-09T01:02:16.974Z,0
2016-10-09T01:02:57.487Z,0
2016-10-09T01:03:38.015Z,0
2016-10-09T01:04:18.526Z,0
2016-10-09T01:04:59.062Z,0
2016-10-09T01:05:39.586Z,0
2016-10-09T01:06:20.102Z,0
2016-10-09T01:07:00.639Z,0
2016-10-09T01:07:41.163Z,0
2016-10-09T01:08:21.701Z,0
2016-10-09T01:09:02.229Z,0
2016-10-09T01:09:42.750Z,0
2016-10-09T01:10:23.282Z,0
2016-10-09T01:11:03.822Z,0
2016-10-09T01:11:44.375Z,0
2016-10-09T01:12:24.919Z,0
2016-10-09T01:13:05.455Z,0
2016-10-09T01:13:45.991Z,0
2016-10-09T01:14:26.548Z,0
2016-10-09T01:15:07.056Z,0
2016-10-09T01:15:47.585Z,0
2016-10-09T01:16:28.112Z,0
2016-10-09T01:17:08.646Z,0
2016-10-09T01:17:49.189Z,0
2016-10-09T01:18:29.748Z,0
2016-10-09T01:19:10.270Z,0
2016-10-09T01:19:50.792Z,0
2016-10-09T01:20:31.317Z,0
2016-10-09T01:21:11.861Z,0
2016-10-09T01:21:52.389Z,0
2016-10-09T01:22:32.921Z,0
2016-10-09T01:23:13.456Z,0
2016-10-09T01:23:53.989Z,0
2016-10-09T01:24:34.530Z,0
2016-10-09T01:25:15.067Z,0
2016-10-09T01:25:55.615Z,0
2016-10-09T01:26:36.150Z,0
2016-10-09T01:27:16.674Z,0
2016-10-09T01:27:57.198Z,0
2016-10-09T01:28:37.718Z,0
2016-10-09T01:29:18.243Z,0
2016-10-09T01:29:58.774Z,0
2016-10-09T01:30:39.311Z,0
2016-10-09T01:31:19.850Z,0
2016-10-09T01:32:00.393Z,0
2016-10-09T01:32:40.927Z,0
2016-10-09T01:33:21.469Z,0
2016-10-09T01:34:02.010Z,0
2016-10-09T01:34:42.547Z,0
2016-10-09T01:35:23.087Z,0
2016-10-09T01:36:03.615Z,0
2016-10-09T01:36:44.156Z,0
2016-10-09T01:37:24.694Z,0
2016-10-09T01:38:05.226Z,0
2016-10-09T01:38:45.730Z,0
2016-10-09T01:39:26.258Z,0
2016-10-09T01:40:06.790Z,0
2016-10-09T01:40:47.349Z,0
2016-10-09T01:41:27.877Z,0
2016-10-09T01:42:08.417Z,0
2016-10-09T01:42:48.956Z,0
2016-10-09T01:43:29.485Z,0
2016-10-09T01:44:10.013Z,0
2016-10-09T01:44:50.552Z,0
2016-10-09T01:45:31.081Z,0
2016-10-09T01:46:11.622Z,0
2016-10-09T01:46:52.169Z,0
2016-10-09T01:47:32.721Z,0
2016-10-09T01:48:13.263Z,0
2016-10-09T01:48:53.786Z,0
2016-10-09T01:49:34.305Z,0
2016-10-09T01:50:14.835Z,0
2016-10-09T01:50:55.359Z,0
2016-10-09T01:51:35.881Z,0
2016-10-09T01:52:16.422Z,0
2016-10-09T01:52:56.973Z,0
2016-10-09T01:53:37.508Z,0
2016-10-09T01:54:18.038Z,0
2016-10-09T01:54:58.561Z,0
2016-10-09T01:55:39.111Z,0
2016-10-09T01:56:19.642Z,0
2016-10-09T01:57:00.170Z,0
2016-10-09T01:57:40.709Z,0
2016-10-09T01:58:21.251Z,0
2016-10-09T01:59:01.791Z,0
2016-10-09T01:59:42.333Z,0
2016-10-09T02:00:22.867Z,0
2016-10-09T02:01:03.392Z,0
2016-10-09T02:01:43.924Z,0
2016-10-09T02:02:24.446Z,0
2016-10-09T02:03:04.990Z,0
2016-10-09T02:03:45.533Z,0
2016-10-09T02:04:26.079Z,0
2016-10-09T02:05:06.586Z,0
2016-10-09T02:05:47.118Z,0
2016-10-09T02:06:27.639Z,0
2016-10-09T02:07:08.172Z,0
2016-10-09T02:07:48.698Z,0
2016-10-09T02:08:29.230Z,0
2016-10-09T02:09:09.762Z,0
2016-10-09T02:09:50.291Z,0
2016-10-09T02:10:30.830Z,0
2016-10-09T02:11:11.339Z,0
2016-10-09T02:11:51.852Z,0
2016-10-09T02:12:32.371Z,0
2016-10-09T02:13:12.911Z,0
2016-10-09T02:13:53.440Z,0
2016-10-09T02:14:33.977Z,0
2016-10-09T02:15:14.505Z,0
2016-10-09T02:15:55.064Z,0
2016-10-09T02:16:35.609Z,0
2016-10-09T02:17:16.146Z,0
2016-10-09T02:17:56.677Z,0
2016-10-09T02:18:37.198Z,0
2016-10-09T02:19:17.738Z,0
2016-10-09T02:19:58.265Z,0
2016-10-09T02:20:38.821Z,0
2016-10-09T02:21:19.363Z,0
2016-10-09T02:21:59.899Z,0
2016-10-09T02:22:40.434Z,0
2016-10-09T02:23:20.997Z,0
2016-10-09T02:24:01.522Z,0
2016-10-09T02:24:42.051Z,0
2016-10-09T02:25:22.588Z,0
2016-10-09T02:26:03.117Z,0
2016-10-09T02:26:43.656Z,0
2016-10-09T02:27:24.155Z,0
2016-10-09T02:28:04.682Z,0
2016-10-09T02:28:45.206Z,0
2016-10-09T02:29:25.745Z,0
2016-10-09T02:30:06.274Z,0
2016-10-09T02:30:46.802Z,0
2016-10-09T02:31:27.316Z,0
2016-10-09T02:32:07.849Z,0
2016-10-09T02:32:48.407Z,0
2016-10-09T02:33:28.947Z,0
2016-10-09T02:34:09.464Z,0
2016-10-09T02:34:49.993Z,0
2016-10-09T02:35:30.530Z,0
2016-10-09T02:36:11.062Z,0
2016-10-09T02:36:51.589Z,0
2016-10-09T02:37:32.142Z,0
2016-10-09T02:38:12.686Z,0
2016-10-09T02:38:53.219Z,0
2016-10-09T02:39:33.753Z,0
2016-10-09T02:40:14.295Z,0
2016-10-09T02:40:54.830Z,0
2016-10-09T02:41:35.366Z,0
2016-10-09T02:42:15.903Z,0
2016-10-09T02:42:56.441Z,0
2016-10-09T02:43:36.976Z,0
2016-10-09T02:44:17.508Z,0
2016-10-09T02:44:58.043Z,0
2016-10-09T02:45:38.571Z,0
2016-10-09T02:46:19.115Z,0
2016-10-09T02:46:59.651Z,0
2016-10-09T02:47:40.205Z,0
2016-10-09T02:48:20.745Z,0
2016-10-09T02:49:01.277Z,0
2016-10-09T02:49:41.809Z,0
2016-10-09T02:50:22.346Z,0
2016-10-09T02:51:02.884Z,0
2016-10-09T02:51:43.415Z,0
2016-10-09T02:52:23.961Z,0
2016-10-09T02:53:04.519Z,0
2016-10-09T02:53:45.041Z,0
2016-10-09T02:54:25.570Z,0
2016-10-09T02:55:06.125Z,0
2016-10-09T02:55:46.627Z,0
2016-10-09T02:56:27.165Z,0
2016-10-09T02:57:07.690Z,0
2016-10-09T02:57:48.216Z,0
2016-10-09T02:58:28.747Z,0
2016-10-09T02:59:09.278Z,0
2016-10-09T02:59:49.811Z,0
2016-10-09T03:00:30.334Z,0
2016-10-09T03:01:10.870Z,0
2016-10-09T03:01:51.409Z,0
2016-10-09T03:02:31.932Z,0
2016-10-09T03:03:12.491Z,0
2016-10-09T03:03:53.032Z,0
2016-10-09T03:04:33.570Z,0
2016-10-09T03:05:14.112Z,0
2016-10-09T03:05:54.633Z,0
2016-10-09T03:06:35.175Z,0
2016-10-09T03:07:15.713Z,0
2016-10-09T03:07:56.254Z,0
2016-10-09T03:08:36.819Z,0
2016-10-09T03:09:17.331Z,0
2016-10-09T03:09:57.863Z,0
2016-10-09T03:10:38.386Z,0
2016-10-09T03:11:18.918Z,0
2016-10-09T03:11:59.435Z,0
2016-10-09T03:12:39.982Z,0
2016-10-09T03:13:20.517Z,0
2016-10-09T03:14:01.054Z,0
2016-10-09T03:14:41.585Z,0
2016-10-09T03:15:22.122Z,0
2016-10-09T03:16:02.660Z,0
2016-10-09T03:16:43.185Z,0
2016-10-09T03:17:23.732Z,0
2016-10-09T03:18:04.232Z,0
2016-10-09T03:18:44.765Z,0
2016-10-09T03:19:25.292Z,0
2016-10-09T03:20:06.750Z,0
2016-10-09T03:20:47.260Z,0
2016-10-09T03:21:27.777Z,0
2016-10-09T03:22:08.315Z,0
2016-10-09T03:22:48.848Z,0
2016-10-09T03:23:29.388Z,0
2016-10-09T03:24:09.911Z,0
2016-10-09T03:24:50.450Z,0
2016-10-09T03:25:30.977Z,0
2016-10-09T03:26:11.533Z,0
2016-10-09T03:26:52.076Z,0
2016-10-09T03:27:32.612Z,0
2016-10-09T03:28:13.152Z,0
2016-10-09T03:28:53.671Z,0
2016-10-09T03:29:34.204Z,0
2016-10-09T03:30:14.741Z,0
2016-10-09T03:30:55.301Z,0
2016-10-09T03:31:35.833Z,0
2016-10-09T03:32:16.373Z,0
2016-10-09T03:32:56.903Z,0
2016-10-09T03:33:37.447Z,0
2016-10-09T03:34:17.973Z,0
2016-10-09T03:34:58.506Z,0
2016-10-09T03:35:39.036Z,0
2016-10-09T03:36:19.590Z,0
2016-10-09T03:37:00.130Z,0
2016-10-09T03:37:40.690Z,0
2016-10-09T03:38:21.237Z,0
2016-10-09T03:39:01.754Z,0
2016-10-09T03:39:42.326Z,0
2016-10-09T03:40:22.879Z,0
2016-10-09T03:41:03.407Z,0
2016-10-09T03:41:43.930Z,0
2016-10-09T03:42:24.472Z,0
2016-10-09T03:43:04.989Z,0
2016-10-09T03:43:45.526Z,0
2016-10-09T03:44:26.059Z,0
2016-10-09T03:45:06.593Z,0
2016-10-09T03:45:47.126Z,0
2016-10-09T03:46:27.671Z,0
2016-10-09T03:47:08.214Z,0
2016-10-09T03:47:48.738Z,0
2016-10-09T03:48:29.281Z,0
2016-10-09T03:49:09.823Z,0
2016-10-09T03:49:50.375Z,0
2016-10-09T03:50:30.877Z,0
2016-10-09T03:51:11.401Z,0
2016-10-09T03:51:51.940Z,0
2016-10-09T03:52:32.489Z,0
2016-10-09T03:53:13.027Z,0
2016-10-09T03:53:53.576Z,0
2016-10-09T03:54:34.131Z,0
2016-10-09T03:55:14.642Z,0
2016-10-09T03:55:55.176Z,0
2016-10-09T03:56:35.746Z,0
2016-10-09T03:57:16.244Z,0
2016-10-09T03:57:56.835Z,0
2016-10-09T03:58:37.375Z,0
2016-10-09T03:59:17.923Z,0
2016-10-09T03:59:58.451Z,0
2016-10-09T04:00:39.001Z,0
2016-10-09T04:01:19.546Z,0
2016-10-09T04:02:00.072Z,0
2016-10-09T04:02:40.609Z,0
2016-10-09T04:03:21.144Z,0
2016-10-09T04:04:01.676Z,0
2016-10-09T04:04:42.240Z,0
2016-10-09T04:05:22.782Z,0
2016-10-09T04:06:03.316Z,0
2016-10-09T04:06:43.837Z,0
2016-10-09T04:07:24.337Z,0
2016-10-09T04:08:04.862Z,0
2016-10-09T04:08:45.417Z,0
2016-10-09T04:09:25.959Z,0
2016-10-09T04:10:06.479Z,0
2016-10-09T04:10:47.039Z,0
2016-10-09T04:11:27.553Z,0
2016-10-09T04:12:08.091Z,0
2016-10-09T04:12:48.635Z,0
2016-10-09T04:13:29.176Z,0
2016-10-09T04:14:09.717Z,0
2016-10-09T04:14:50.253Z,0
2016-10-09T04:15:30.789Z,0
2016-10-09T04:16:11.353Z,0
2016-10-09T04:16:51.890Z,0
2016-10-09T04:17:32.412Z,0
2016-10-09T04:18:12.940Z,0
2016-10-09T04:18:53.474Z,0
2016-10-09T04:19:34.032Z,0
2016-10-09T04:20:14.562Z,0
2016-10-09T04:20:55.090Z,0
2016-10-09T04:21:35.626Z,0
2016-10-09T04:22:16.167Z,0
2016-10-09T04:22:56.699Z,0
2016-10-09T04:23:37.228Z,0
2016-10-09T04:24:17.766Z,0
2016-10-09T04:24:58.313Z,0
2016-10-09T04:25:38.851Z,0
2016-10-09T04:26:19.368Z,0
2016-10-09T04:26:59.908Z,0
2016-10-09T04:27:40.418Z,0
2016-10-09T04:28:20.971Z,0
2016-10-09T04:29:01.513Z,0
2016-10-09T04:29:42.029Z,0
2016-10-09T04:30:22.551Z,0
2016-10-09T04:31:03.075Z,0
2016-10-09T04:31:43.596Z,0
2016-10-09T04:32:24.111Z,0
2016-10-09T04:33:04.659Z,0
2016-10-09T04:33:45.189Z,0
2016-10-09T04:34:25.734Z,0
2016-10-09T04:35:06.273Z,0
2016-10-09T04:35:46.798Z,0
2016-10-09T04:36:27.315Z,0
2016-10-09T04:37:07.847Z,0
2016-10-09T04:37:48.394Z,0
2016-10-09T04:38:28.924Z,0
2016-10-09T04:39:09.450Z,0
2016-10-09T04:39:49.987Z,0
2016-10-09T04:40:30.508Z,0
2016-10-09T04:41:11.035Z,0
2016-10-09T04:41:51.583Z,0
2016-10-09T04:42:32.143Z,0
2016-10-09T04:43:12.675Z,0
2016-10-09T04:43:53.214Z,0
2016-10-09T04:44:33.750Z,0
2016-10-09T04:45:14.281Z,0
2016-10-09T04:45:54.814Z,0
2016-10-09T04:46:35.376Z,0
2016-10-09T04:47:15.879Z,0
2016-10-09T04:47:56.436Z,0
2016-10-09T04:48:36.957Z,0
2016-10-09T04:49:17.483Z,0
2016-10-09T04:49:58.008Z,0
2016-10-09T04:50:38.550Z,0
2016-10-09T04:51:19.081Z,0
2016-10-09T04:51:59.614Z,0
2016-10-09T04:52:40.128Z,0
2016-10-09T04:53:20.669Z,0
2016-10-09T04:54:01.201Z,0
2016-10-09T04:54:41.751Z,0
2016-10-09T04:55:22.263Z,0
2016-10-09T04:56:02.779Z,0
2016-10-09T04:56:43.312Z,0
2016-10-09T04:57:23.828Z,0
2016-10-09T04:58:04.348Z,0
2016-10-09T04:58:44.865Z,0
2016-10-09T04:59:25.400Z,0
2016-10-09T05:00:05.934Z,0
2016-10-09T05:00:46.488Z,0
2016-10-09T05:01:26.999Z,0
2016-10-09T05:02:07.514Z,0
2016-10-09T05:02:48.053Z,0
2016-10-09T05:03:28.595Z,0
2016-10-09T05:04:09.157Z,0
2016-10-09T05:04:49.690Z,0
2016-10-09T05:05:30.234Z,0
2016-10-09T05:06:10.775Z,0
2016-10-09T05:06:51.348Z,0
2016-10-09T05:07:31.873Z,0
2016-10-09T05:08:12.384Z,0
2016-10-09T05:08:52.902Z,0
2016-10-09T05:09:33.442Z,0
2016-10-09T05:10:13.973Z,0
2016-10-09T05:10:54.538Z,0
2016-10-09T05:11:35.089Z,0
2016-10-09T05:12:15.597Z,0
2016-10-09T05:12:56.109Z,0
2016-10-09T05:13:36.651Z,0
2016-10-09T05:14:17.192Z,0
2016-10-09T05:14:57.718Z,0
2016-10-09T05:15:38.236Z,0
2016-10-09T05:16:18.766Z,0
2016-10-09T05:16:59.289Z,0
2016-10-09T05:17:39.820Z,0
2016-10-09T05:18:20.348Z,0
2016-10-09T05:19:00.879Z,0
2016-10-09T05:19:41.400Z,0
2016-10-09T05:20:21.948Z,0
2016-10-09T05:21:02.482Z,0
2016-10-09T05:21:43.007Z,0
2016-10-09T05:22:23.517Z,0
2016-10-09T05:23:04.056Z,0
2016-10-09T05:23:44.596Z,0
2016-10-09T05:24:25.124Z,0
2016-10-09T05:25:05.652Z,0
2016-10-09T05:25:46.184Z,0
2016-10-09T05:26:26.701Z,0
2016-10-09T05:27:07.243Z,0
2016-10-09T05:27:47.743Z,0
2016-10-09T05:28:28.259Z,0
2016-10-09T05:29:08.777Z,0
2016-10-09T05:29:49.298Z,0
2016-10-09T05:30:29.826Z,0
2016-10-09T05:31:10.353Z,0
2016-10-09T05:31:51.786Z,0
2016-10-09T05:32:32.305Z,0
2016-10-09T05:33:12.806Z,0
2016-10-09T05:33:53.324Z,0
2016-10-09T05:34:33.851Z,0
2016-10-09T05:35:14.381Z,0
2016-10-09T05:35:54.887Z,0
2016-10-09T05:36:35.419Z,0
2016-10-09T05:37:15.992Z,0
2016-10-09T05:37:56.533Z,0
2016-10-09T05:38:37.067Z,0
2016-10-09T05:39:17.610Z,0
2016-10-09T05:39:58.143Z,0
2016-10-09T05:40:38.697Z,0
2016-10-09T05:41:19.228Z,5
2016-10-09T05:41:59.752Z,5
2016-10-09T05:42:40.293Z,5
2016-10-09T05:43:20.847Z,5
2016-10-09T05:44:01.356Z,5
2016-10-09T05:44:41.877Z,5
2016-10-09T05:45:22.404Z,5
2016-10-09T05:46:02.921Z,5
2016-10-09T05:46:43.444Z,5
2016-10-09T05:47:23.976Z,5
2016-10-09T05:48:04.511Z,10
2016-10-09T05:48:45.030Z,10
2016-10-09T05:49:25.568Z,10
2016-10-09T05:50:06.105Z,10
2016-10-09T05:50:46.631Z,10
2016-10-09T05:51:27.179Z,10
2016-10-09T05:52:07.691Z,10
2016-10-09T05:52:48.212Z,10
2016-10-09T05:53:28.737Z,15
2016-10-09T05:54:09.287Z,15
2016-10-09T05:54:49.810Z,15
2016-10-09T05:55:30.383Z,15
2016-10-09T05:56:10.922Z,15
2016-10-09T05:56:51.462Z,15
2016-10-09T05:57:31.995Z,20
2016-10-09T05:58:12.529Z,20
2016-10-09T05:58:53.068Z,20
2016-10-09T05:59:33.685Z,20
2016-10-09T06:00:14.315Z,20
2016-10-09T06:00:54.896Z,25
2016-10-09T06:01:35.419Z,25
2016-10-09T06:02:15.979Z,25
2016-10-09T06:02:56.526Z,25
2016-10-09T06:03:37.081Z,25
2016-10-09T06:04:17.626Z,30
2016-10-09T06:04:58.164Z,30
2016-10-09T06:05:38.688Z,30
2016-10-09T06:06:19.203Z,30
2016-10-09T06:06:59.733Z,30
2016-10-09T06:07:40.246Z,35
2016-10-09T06:08:20.776Z,35
2016-10-09T06:09:01.316Z,35
2016-10-09T06:09:41.856Z,35
2016-10-09T06:10:22.379Z,35
2016-10-09T06:11:02.920Z,35
2016-10-09T06:11:43.438Z,35
2016-10-09T06:12:23.955Z,35
2016-10-09T06:13:04.497Z,40
2016-10-09T06:13:45.001Z,40
2016-10-09T06:14:25.542Z,40
2016-10-09T06:15:06.084Z,40
2016-10-09T06:15:46.611Z,40
2016-10-09T06:16:27.139Z,40
2016-10-09T06:17:07.637Z,45
2016-10-09T06:17:48.175Z,45
2016-10-09T06:18:28.707Z,45
2016-10-09T06:19:09.282Z,45
2016-10-09T06:19:49.809Z,45
2016-10-09T06:20:30.332Z,45
2016-10-09T06:21:10.902Z,45
2016-10-09T06:21:51.412Z,45
2016-10-09T06:22:31.951Z,45
2016-10-09T06:23:12.490Z,45
2016-10-09T06:23:53.013Z,45
2016-10-09T06:24:33.576Z,45
2016-10-09T06:25:14.115Z,45
2016-10-09T06:25:54.657Z,45
2016-10-09T06:26:35.198Z,45
2016-10-09T06:27:15.748Z,50
2016-10-09T06:27:56.290Z,50
2016-10-09T06:28:36.817Z,50
2016-10-09T06:29:17.544Z,50
2016-10-09T06:29:58.086Z,50
2016-10-09T06:30:38.633Z,50
2016-10-09T06:31:19.136Z,50
2016-10-09T06:31:59.655Z,55
2016-10-09T06:32:40.173Z,55
2016-10-09T06:33:20.724Z,55
2016-10-09T06:34:01.245Z,55
2016-10-09T06:34:41.818Z,55
2016-10-09T06:35:22.328Z,55
2016-10-09T06:36:02.862Z,55
2016-10-09T06:36:43.409Z,60
2016-10-09T06:37:23.955Z,60
2016-10-09T06:38:04.476Z,60
2016-10-09T06:38:45.009Z,60
2016-10-09T06:39:25.509Z,60
2016-10-09T06:40:06.041Z,60
2016-10-09T06:40:46.598Z,60
2016-10-09T06:41:27.128Z,60
2016-10-09T06:42:07.674Z,65
2016-10-09T06:42:48.214Z,65
2016-10-09T06:43:28.746Z,65
2016-10-09T06:44:09.275Z,65
2016-10-09T06:44:49.816Z,65
2016-10-09T06:45:30.361Z,65
2016-10-09T06:46:10.902Z,65
2016-10-09T06:46:51.435Z,70
2016-10-09T06:47:31.993Z,70
2016-10-09T06:48:12.531Z,70
2016-10-09T06:48:53.058Z,75
2016-10-09T06:49:33.579Z,80
2016-10-09T06:50:14.113Z,80
2016-10-09T06:50:54.634Z,85
2016-10-09T06:51:35.163Z,85
2016-10-09T06:52:15.685Z,85
2016-10-09T06:52:56.217Z,90
2016-10-09T06:53:36.746Z,95
2016-10-09T06:54:17.298Z,100
2016-10-09T06:54:57.834Z,105
2016-10-09T06:55:38.373Z,105
2016-10-09T06:56:18.916Z,115
2016-10-09T06:56:59.453Z,120
2016-10-09T06:57:39.991Z,120
2016-10-09T06:58:20.523Z,120
2016-10-09T06:59:01.062Z,125
2016-10-09T06:59:41.599Z,130
2016-10-09T07:00:22.137Z,135
2016-10-09T07:01:02.678Z,135
2016-10-09T07:01:43.219Z,140
2016-10-09T07:02:23.746Z,145
2016-10-09T07:03:04.274Z,145
2016-10-09T07:03:44.808Z,145
2016-10-09T07:04:25.342Z,150
2016-10-09T07:05:05.869Z,155
2016-10-09T07:05:46.368Z,160
2016-10-09T07:06:26.913Z,160
2016-10-09T07:07:07.416Z,165
2016-10-09T07:07:47.936Z,170
2016-10-09T07:08:28.445Z,170
2016-10-09T07:09:08.993Z,170
2016-10-09T07:09:49.532Z,170
2016-10-09T07:10:30.068Z,170
2016-10-09T07:11:10.561Z,170
2016-10-09T07:11:51.094Z,175
2016-10-09T07:12:31.607Z,180
2016-10-09T07:13:12.126Z,180
2016-10-09T07:13:52.659Z,185
2016-10-09T07:14:33.171Z,185
2016-10-09T07:15:13.699Z,190
2016-10-09T07:15:54.215Z,190
2016-10-09T07:16:34.775Z,190
2016-10-09T07:17:15.298Z,195
2016-10-09T07:17:55.842Z,200
2016-10-09T07:18:36.383Z,205
2016-10-09T07:19:16.900Z,205
2016-10-09T07:19:57.496Z,205
2016-10-09T07:20:38.038Z,210
2016-10-09T07:21:18.596Z,215
2016-10-09T07:21:59.126Z,215
2016-10-09T07:22:39.801Z,220
2016-10-09T07:23:20.349Z,225
2016-10-09T07:24:00.880Z,230
2016-10-09T07:24:41.403Z,230
2016-10-09T07:25:21.930Z,235
2016-10-09T07:26:02.474Z,235
2016-10-09T07:26:43.012Z,240
2016-10-09T07:27:23.572Z,240
2016-10-09T07:28:04.112Z,245
2016-10-09T07:28:44.678Z,245
2016-10-09T07:29:25.211Z,250
2016-10-09T07:30:05.741Z,250
2016-10-09T07:30:46.268Z,250
2016-10-09T07:31:26.802Z,250
2016-10-09T07:32:07.342Z,250
2016-10-09T07:32:47.867Z,245
2016-10-09T07:33:28.416Z,250
2016-10-09T07:34:09.006Z,255
2016-10-09T07:34:49.554Z,260
2016-10-09T07:35:30.099Z,265
2016-10-09T07:36:10.638Z,275
2016-10-09T07:36:51.167Z,285
2016-10-09T07:37:31.749Z,290
2016-10-09T07:38:12.289Z,300
2016-10-09T07:38:52.816Z,310
2016-10-09T07:39:33.363Z,315
2016-10-09T07:40:13.898Z,315
2016-10-09T07:40:54.417Z,315
2016-10-09T07:41:34.956Z,315
2016-10-09T07:42:15.494Z,315
2016-10-09T07:42:56.035Z,315
2016-10-09T07:43:36.571Z,310
2016-10-09T07:44:17.119Z,310
2016-10-09T07:44:57.643Z,315
2016-10-09T07:45:38.161Z,320
2016-10-09T07:46:18.684Z,330
2016-10-09T07:46:59.320Z,335
2016-10-09T07:47:39.806Z,340
2016-10-09T07:48:20.360Z,350
2016-10-09T07:49:00.899Z,355
2016-10-09T07:49:41.430Z,355
2016-10-09T07:50:21.975Z,360
2016-10-09T07:51:02.518Z,375
2016-10-09T07:51:43.065Z,375
2016-10-09T07:52:23.585Z,375
2016-10-09T07:53:04.124Z,375
2016-10-09T07:53:44.647Z,375
2016-10-09T07:54:25.181Z,385
2016-10-09T07:55:05.721Z,385
2016-10-09T07:55:46.234Z,390
2016-10-09T07:56:26.771Z,395
2016-10-09T07:57:07.308Z,400
2016-10-09T07:57:47.852Z,415
2016-10-09T07:58:28.388Z,425
2016-10-09T07:59:08.955Z,440
2016-10-09T07:59:49.490Z,440
2016-10-09T08:00:30.050Z,440
2016-10-09T08:01:10.612Z,435
2016-10-09T08:01:51.177Z,425
2016-10-09T08:02:31.720Z,415
2016-10-09T08:03:12.247Z,405
2016-10-09T08:03:52.788Z,400
2016-10-09T08:04:33.330Z,400
2016-10-09T08:05:13.888Z,400
2016-10-09T08:05:54.434Z,400
2016-10-09T08:06:34.979Z,400
2016-10-09T08:07:15.501Z,410
2016-10-09T08:07:56.041Z,395
2016-10-09T08:08:36.581Z,395
2016-10-09T08:09:17.126Z,390
2016-10-09T08:09:57.664Z,395
2016-10-09T08:10:38.198Z,400
2016-10-09T08:11:18.740Z,400
2016-10-09T08:11:59.274Z,395
2016-10-09T08:12:39.837Z,395
2016-10-09T08:13:20.382Z,385
2016-10-09T08:14:00.919Z,385
2016-10-09T08:14:41.446Z,380
2016-10-09T08:15:21.985Z,385
2016-10-09T08:16:02.505Z,415
2016-10-09T08:16:43.052Z,430
2016-10-09T08:17:23.579Z,425
2016-10-09T08:18:04.141Z,430
2016-10-09T08:18:44.666Z,440
2016-10-09T08:19:25.188Z,455
2016-10-09T08:20:05.715Z,475
2016-10-09T08:20:46.230Z,505
2016-10-09T08:21:26.752Z,515
2016-10-09T08:22:07.285Z,505
2016-10-09T08:22:47.827Z,530
2016-10-09T08:23:28.368Z,510
2016-10-09T08:24:08.938Z,485
2016-10-09T08:24:49.471Z,455
2016-10-09T08:25:30.030Z,460
2016-10-09T08:26:10.568Z,490
2016-10-09T08:26:51.103Z,510
2016-10-09T08:27:31.604Z,505
2016-10-09T08:28:12.110Z,500
2016-10-09T08:28:52.634Z,485
2016-10-09T08:29:33.163Z,465
2016-10-09T08:30:13.699Z,455
2016-10-09T08:30:54.218Z,445
2016-10-09T08:31:34.728Z,440
2016-10-09T08:32:15.272Z,445
2016-10-09T08:32:55.798Z,430
2016-10-09T08:33:36.314Z,425
2016-10-09T08:34:16.881Z,420
2016-10-09T08:34:57.407Z,425
2016-10-09T08:35:37.912Z,425
2016-10-09T08:36:18.434Z,430
2016-10-09T08:36:58.948Z,420
2016-10-09T08:37:39.416Z,425
2016-10-09T08:38:19.928Z,450
2016-10-09T08:39:00.467Z,495
2016-10-09T08:39:41.007Z,555
2016-10-09T08:40:21.547Z,600
2016-10-09T08:41:02.070Z,625
2016-10-09T08:41:42.601Z,610
2016-10-09T08:42:23.114Z,580
2016-10-09T08:43:03.650Z,540
2016-10-09T08:43:44.195Z,500
2016-10-09T08:44:24.739Z,480
2016-10-09T08:45:05.280Z,455
2016-10-09T08:45:45.813Z,445
2016-10-09T08:46:26.366Z,465
2016-10-09T08:47:06.903Z,505
2016-10-09T08:47:47.470Z,560
2016-10-09T08:48:28.010Z,1045
2016-10-09T08:49:08.562Z,945
2016-10-09T08:49:49.124Z,980
2016-10-09T08:50:29.695Z,790
2016-10-09T08:51:10.243Z,1155
2016-10-09T08:51:50.763Z,1105
2016-10-09T08:52:31.320Z,1155
2016-10-09T08:53:11.853Z,1475
2016-10-09T08:53:52.376Z,1470
2016-10-09T08:54:32.930Z,1465
2016-10-09T08:55:13.437Z,1445
2016-10-09T08:55:53.976Z,1445
2016-10-09T08:56:34.518Z,1480
2016-10-09T08:57:15.068Z,1510
2016-10-09T08:57:55.613Z,1530
2016-10-09T08:58:36.155Z,1535
2016-10-09T08:59:16.725Z,1500
2016-10-09T08:59:57.274Z,1490
2016-10-09T09:00:37.806Z,1510
2016-10-09T09:01:18.362Z,1570
2016-10-09T09:01:58.883Z,1595
2016-10-09T09:02:39.411Z,1600
2016-10-09T09:03:19.953Z,1590
2016-10-09T09:04:00.535Z,1590
2016-10-09T09:04:41.064Z,1605
2016-10-09T09:05:21.616Z,1630
2016-10-09T09:06:02.134Z,1640
2016-10-09T09:06:42.647Z,1645
2016-10-09T09:07:23.174Z,1650
2016-10-09T09:08:03.720Z,1665
2016-10-09T09:08:44.267Z,1630
2016-10-09T09:09:24.815Z,1620
2016-10-09T09:10:05.337Z,1600
2016-10-09T09:10:45.867Z,1590
2016-10-09T09:11:26.549Z,1600
2016-10-09T09:12:07.119Z,1620
2016-10-09T09:12:47.631Z,1625
2016-10-09T09:13:28.206Z,1640
2016-10-09T09:14:08.723Z,1645
2016-10-09T09:14:49.246Z,1665
2016-10-09T09:15:29.783Z,1685
2016-10-09T09:16:10.302Z,1720
2016-10-09T09:16:50.838Z,1745
2016-10-09T09:17:31.365Z,1740
2016-10-09T09:18:11.885Z,1770
2016-10-09T09:18:52.422Z,1810
2016-10-09T09:19:32.944Z,1855
2016-10-09T09:20:13.477Z,1815
2016-10-09T09:20:54.004Z,1700
2016-10-09T09:21:34.522Z,1685
2016-10-09T09:22:15.056Z,1725
2016-10-09T09:22:55.595Z,1820
2016-10-09T09:23:36.111Z,1860
2016-10-09T09:24:16.638Z,1865
2016-10-09T09:24:57.166Z,1840
2016-10-09T09:25:37.704Z,1855
2016-10-09T09:26:18.239Z,1910
2016-10-09T09:26:58.786Z,1915
2016-10-09T09:27:39.283Z,1920
2016-10-09T09:28:19.832Z,1910
2016-10-09T09:29:00.356Z,1905
2016-10-09T09:29:40.919Z,1885
2016-10-09T09:30:21.454Z,1875
2016-10-09T09:31:01.996Z,1895
2016-10-09T09:31:42.538Z,1935
2016-10-09T09:32:23.050Z,2015
2016-10-09T09:33:03.611Z,2085
2016-10-09T09:33:44.138Z,2100
2016-10-09T09:34:24.676Z,2120
2016-10-09T09:35:05.204Z,2180
2016-10-09T09:35:45.741Z,2220
2016-10-09T09:36:26.270Z,1770
2016-10-09T09:37:06.811Z,1690
2016-10-09T09:37:47.354Z,1400
2016-10-09T09:38:27.908Z,1200
2016-10-09T09:39:08.443Z,1120
2016-10-09T09:39:48.980Z,1450
2016-10-09T09:40:29.493Z,1645
2016-10-09T09:41:10.010Z,1590
2016-10-09T09:41:50.524Z,1415
2016-10-09T09:42:31.053Z,1305
2016-10-09T09:43:11.593Z,1170
2016-10-09T09:43:52.090Z,1100
2016-10-09T09:44:32.624Z,1715
2016-10-09T09:45:13.185Z,2135
2016-10-09T09:45:53.673Z,1015
2016-10-09T09:46:34.211Z,1390
2016-10-09T09:47:14.762Z,2190
2016-10-09T09:47:55.270Z,1005
2016-10-09T09:48:35.824Z,2050
2016-10-09T09:49:16.353Z,1485
2016-10-09T09:49:56.895Z,2325
2016-10-09T09:50:37.433Z,2420
2016-10-09T09:51:17.936Z,2450
2016-10-09T09:51:58.454Z,2425
2016-10-09T09:52:38.961Z,2395
2016-10-09T09:53:19.488Z,2400
2016-10-09T09:54:00.014Z,2420
2016-10-09T09:54:40.547Z,2455
2016-10-09T09:55:21.071Z,2470
2016-10-09T09:56:01.591Z,2435
2016-10-09T09:56:42.115Z,2390
2016-10-09T09:57:22.645Z,2390
2016-10-09T09:58:03.163Z,2505